Time;durP1;ratioP1;P1;durP2;ratioP2;P2;SDS_P1;SDS_P2;PMS_P1;PMS_P2;Temp;Humidity;BMP_temperature;BMP_pressure;BME280_temperature;BME280_humidity;BME280_pressure;Samples;Min_cycle;Max_cycle;Signal;HPM_P1;HPM_P2
2022/11/05 00:09:28;;;;;;;4.38;1.95;;;7.90;99.90;;;;;;6186583;23;20321;-81
2022/11/05 05:01:52;;;;;;;8.82;4.45;;;6.90;99.90;;;;;;6158616;23;20021;-81
2022/11/05 05:04:18;;;;;;;11.35;4.47;;;6.90;99.90;;;;;;6183814;23;20508;-79
2022/11/05 05:06:43;;;;;;;10.63;4.65;;;6.80;99.90;;;;;;6183362;23;20013;-79
2022/11/05 05:09:11;;;;;;;10.98;4.60;;;6.80;99.90;;;;;;6158413;23;20021;-80
2022/11/05 05:11:38;;;;;;;9.82;4.68;;;6.80;99.90;;;;;;6185851;23;20021;-80
2022/11/05 05:14:03;;;;;;;8.18;4.57;;;6.90;99.90;;;;;;6189808;23;20020;-80
2022/11/05 05:16:29;;;;;;;12.90;4.80;;;6.90;99.90;;;;;;6187788;23;20013;-80
2022/11/05 05:18:54;;;;;;;10.93;4.63;;;6.90;99.90;;;;;;6163420;23;20067;-78
2022/11/05 05:21:40;;;;;;;17.77;6.72;;;6.80;99.90;;;;;;6187720;23;20454;-79
2022/11/05 05:24:07;;;;;;;14.48;5.40;;;6.90;99.90;;;;;;6187757;23;20047;-80
2022/11/05 05:26:35;;;;;;;11.98;4.93;;;6.90;99.90;;;;;;6187442;23;20016;-80
2022/11/05 05:29:01;;;;;;;11.82;5.70;;;6.90;99.90;;;;;;6189476;23;20009;-80
2022/11/05 05:31:27;;;;;;;11.65;5.30;;;6.90;99.90;;;;;;6212421;23;20021;-81
2022/11/05 05:33:53;;;;;;;10.88;5.30;;;6.90;99.90;;;;;;6190926;23;20036;-80
2022/11/05 05:36:20;;;;;;;11.70;5.18;;;6.90;99.90;;;;;;6187829;23;20015;-81
2022/11/05 05:38:45;;;;;;;13.65;5.65;;;6.90;99.90;;;;;;6187828;23;20059;-79
2022/11/05 05:41:11;;;;;;;10.43;5.43;;;6.90;99.90;;;;;;6163315;23;20016;-79
2022/11/05 05:43:36;;;;;;;23.77;7.10;;;6.90;99.90;;;;;;6188102;23;20017;-80
2022/11/05 05:46:03;;;;;;;13.88;5.38;;;6.90;99.90;;;;;;6187742;23;20021;-80
2022/11/05 05:48:29;;;;;;;13.88;5.55;;;6.90;99.90;;;;;;6187807;23;20020;-81
2022/11/05 05:51:00;;;;;;;9.10;5.70;;;6.90;99.90;;;;;;6187566;23;20021;-80
2022/11/05 05:53:26;;;;;;;12.57;5.30;;;6.90;99.90;;;;;;6212677;23;20017;-79
2022/11/05 05:55:53;;;;;;;14.85;6.25;;;7.00;99.90;;;;;;6188127;23;20036;-80
2022/11/05 05:58:19;;;;;;;11.85;5.50;;;6.90;99.90;;;;;;6188162;23;20005;-80
2022/11/05 06:00:45;;;;;;;13.07;6.03;;;7.00;99.90;;;;;;6187501;23;20443;-80
2022/11/05 06:03:10;;;;;;;12.02;5.45;;;6.90;99.90;;;;;;6188278;23;20052;-81
2022/11/05 06:05:36;;;;;;;14.68;6.40;;;7.00;99.90;;;;;;6189713;23;20009;-81
2022/11/05 06:08:02;;;;;;;11.63;6.00;;;6.90;99.90;;;;;;6188144;23;20012;-81
2022/11/05 06:10:27;;;;;;;10.90;6.03;;;6.90;99.90;;;;;;6187999;23;20044;-80
2022/11/05 06:12:53;;;;;;;14.20;6.25;;;6.90;99.90;;;;;;6187437;23;20012;-80
2022/11/05 06:15:19;;;;;;;16.23;6.93;;;6.90;99.90;;;;;;6162817;23;20020;-82
2022/11/05 06:17:45;;;;;;;24.77;14.38;;;7.00;99.90;;;;;;6187893;23;20024;-82
2022/11/05 06:20:12;;;;;;;11.55;6.18;;;7.00;99.90;;;;;;6188334;23;20113;-82
2022/11/05 06:22:38;;;;;;;13.48;6.90;;;7.00;99.90;;;;;;6188205;23;20068;-81
2022/11/05 06:25:04;;;;;;;11.00;6.05;;;7.00;99.90;;;;;;6187721;23;20013;-80
2022/11/05 06:27:30;;;;;;;11.32;6.15;;;7.00;99.90;;;;;;6212410;23;20020;-81
2022/11/05 06:29:56;;;;;;;12.48;6.60;;;6.90;99.90;;;;;;6187632;23;20009;-80
2022/11/05 06:32:21;;;;;;;13.48;6.70;;;6.90;99.90;;;;;;6187400;23;20339;-80
2022/11/05 06:34:47;;;;;;;11.20;6.43;;;6.90;99.90;;;;;;6187894;23;20067;-79
2022/11/05 06:37:13;;;;;;;13.02;5.90;;;6.90;99.90;;;;;;6186614;23;20009;-82
2022/11/05 06:39:38;;;;;;;12.38;6.22;;;6.90;99.90;;;;;;6160137;23;20013;-82
2022/11/05 06:42:04;;;;;;;12.77;6.80;;;6.90;99.90;;;;;;6186060;23;20017;-83
2022/11/05 06:44:30;;;;;;;12.77;5.43;;;6.90;99.90;;;;;;6185435;23;20441;-80
2022/11/05 06:46:55;;;;;;;16.23;6.82;;;6.90;99.90;;;;;;6184829;23;20462;-81
2022/11/05 06:49:24;;;;;;;9.98;5.47;;;6.90;99.90;;;;;;6186972;23;20526;-80
2022/11/05 06:51:51;;;;;;;13.05;6.22;;;6.90;99.90;;;;;;6159890;23;20662;-81
2022/11/05 06:54:16;;;;;;;12.40;5.80;;;6.90;99.90;;;;;;6185691;23;20017;-79
2022/11/05 06:56:42;;;;;;;14.65;5.13;;;6.90;99.90;;;;;;6184661;23;20485;-80
2022/11/05 06:59:07;;;;;;;11.70;5.10;;;6.90;99.90;;;;;;6185085;23;20020;-82
2022/11/05 07:01:34;;;;;;;15.98;4.78;;;6.90;99.90;;;;;;6186375;23;20092;-80
2022/11/05 07:04:00;;;;;;;10.40;4.93;;;6.90;99.90;;;;;;6186009;23;20538;-81
2022/11/05 07:06:26;;;;;;;13.48;4.88;;;7.00;99.90;;;;;;6185890;23;20017;-79
2022/11/05 07:08:52;;;;;;;13.52;4.43;;;7.00;99.90;;;;;;6161169;23;20009;-80
2022/11/05 07:11:18;;;;;;;10.15;4.10;;;6.90;99.90;;;;;;6185662;23;20021;-80
2022/11/05 07:13:43;;;;;;;11.88;4.18;;;7.00;99.90;;;;;;6160319;23;20404;-80
2022/11/05 07:16:09;;;;;;;9.40;4.15;;;7.00;99.90;;;;;;6185604;23;20187;-79
2022/11/05 07:18:35;;;;;;;11.25;4.20;;;7.00;99.90;;;;;;6187692;23;20052;-80
2022/11/05 07:21:01;;;;;;;11.60;3.92;;;7.10;99.90;;;;;;6183217;23;20088;-80
2022/11/05 07:23:26;;;;;;;7.25;3.90;;;7.10;99.90;;;;;;6184581;23;20021;-80
2022/11/05 07:25:52;;;;;;;12.23;4.72;;;7.10;99.90;;;;;;6185863;23;20320;-80
2022/11/05 07:28:18;;;;;;;8.30;4.30;;;7.20;99.90;;;;;;6187338;23;20493;-81
2022/11/05 07:30:44;;;;;;;10.55;3.90;;;7.10;99.90;;;;;;6186861;23;20381;-80
2022/11/05 07:33:09;;;;;;;10.18;4.00;;;7.20;99.90;;;;;;6185528;23;20017;-80
2022/11/05 07:35:35;;;;;;;9.90;4.18;;;7.20;99.90;;;;;;6187154;23;20044;-81
2022/11/05 07:38:01;;;;;;;11.65;4.28;;;7.20;99.90;;;;;;6185771;23;20013;-81
2022/11/05 07:40:29;;;;;;;8.27;4.35;;;7.30;99.90;;;;;;6185813;23;20017;-80
2022/11/05 07:42:59;;;;;;;10.43;4.57;;;7.30;99.90;;;;;;6210351;23;20025;-80
2022/11/05 07:45:27;;;;;;;11.27;4.28;;;7.30;99.90;;;;;;6186494;23;20017;-80
2022/11/05 07:47:55;;;;;;;11.40;4.05;;;7.40;99.90;;;;;;6185378;23;20049;-79
2022/11/05 07:50:23;;;;;;;10.23;5.00;;;7.40;99.90;;;;;;6185758;23;20076;-78
2022/11/05 07:52:49;;;;;;;8.15;4.10;;;7.40;99.90;;;;;;6185596;23;20013;-80
2022/11/05 07:55:16;;;;;;;10.05;4.28;;;7.50;99.90;;;;;;6187338;23;20088;-79
2022/11/05 07:57:44;;;;;;;9.65;3.90;;;7.60;99.90;;;;;;6187369;23;20009;-82
2022/11/05 08:00:12;;;;;;;7.07;4.05;;;7.70;99.90;;;;;;6185562;23;20401;-81
2022/11/05 08:02:38;;;;;;;6.85;3.55;;;7.80;99.90;;;;;;6185262;23;20126;-83
2022/11/05 08:05:03;;;;;;;15.05;4.75;;;7.80;99.90;;;;;;6161626;23;20021;-84
2022/11/05 08:07:29;;;;;;;6.65;3.50;;;7.90;99.90;;;;;;6185724;23;20048;-83
2022/11/05 08:09:55;;;;;;;9.75;4.05;;;8.00;99.90;;;;;;6185975;23;20052;-82
2022/11/05 08:12:21;;;;;;;6.18;3.63;;;8.00;99.90;;;;;;6186507;23;20385;-84
2022/11/05 08:14:46;;;;;;;15.70;4.95;;;8.10;99.90;;;;;;6187525;23;20098;-84
2022/11/05 08:17:12;;;;;;;7.40;3.70;;;8.10;99.90;;;;;;6185108;23;20048;-84
2022/11/05 08:19:37;;;;;;;6.47;3.20;;;8.10;99.90;;;;;;6186027;23;20013;-81
2022/11/05 08:22:03;;;;;;;9.40;4.15;;;8.10;99.90;;;;;;6185828;23;20502;-83
2022/11/05 08:24:28;;;;;;;9.43;3.22;;;8.20;99.90;;;;;;6187992;23;20017;-83
2022/11/05 08:26:54;;;;;;;7.00;3.20;;;8.30;99.90;;;;;;6160970;23;20025;-82
2022/11/05 08:29:20;;;;;;;10.85;3.38;;;8.30;99.90;;;;;;6186105;23;20023;-80
2022/11/05 08:31:45;;;;;;;9.15;3.20;;;8.40;99.90;;;;;;6186924;23;20013;-83
2022/11/05 08:34:11;;;;;;;10.88;3.60;;;8.50;99.90;;;;;;6185777;23;20343;-82
2022/11/05 08:36:40;;;;;;;7.72;3.30;;;8.50;99.90;;;;;;6188363;23;20016;-81
2022/11/05 08:39:06;;;;;;;9.30;3.22;;;8.60;99.90;;;;;;6186198;23;20053;-81
2022/11/05 08:41:32;;;;;;;8.23;4.07;;;8.70;99.90;;;;;;6187870;23;20020;-85
2022/11/05 08:43:57;;;;;;;11.43;3.63;;;8.80;99.90;;;;;;6188040;23;20040;-81
2022/11/05 08:46:23;;;;;;;5.47;3.15;;;9.10;99.90;;;;;;6187576;23;20016;-83
2022/11/05 08:48:49;;;;;;;7.97;3.45;;;9.70;99.90;;;;;;6186149;23;20048;-82
2022/11/05 08:51:14;;;;;;;7.28;3.55;;;10.40;99.90;;;;;;6187629;23;20068;-80
2022/11/05 08:53:40;;;;;;;7.93;2.75;;;10.70;99.90;;;;;;6194882;23;20009;-80
2022/11/05 08:56:06;;;;;;;6.13;3.20;;;10.70;99.90;;;;;;6196059;23;20013;-85
2022/11/05 08:58:32;;;;;;;5.65;2.83;;;10.50;99.90;;;;;;6188270;23;20013;-84
2022/11/05 09:00:57;;;;;;;6.65;2.70;;;10.30;99.90;;;;;;6185638;23;20016;-83
2022/11/05 09:03:23;;;;;;;12.02;2.90;;;10.20;99.90;;;;;;6185704;23;20020;-82
2022/11/05 09:05:49;;;;;;;7.95;2.60;;;10.10;99.90;;;;;;6185318;23;20059;-82
2022/11/05 09:08:18;;;;;;;7.10;2.60;;;10.10;99.90;;;;;;6187711;23;20088;-84
2022/11/05 09:10:45;;;;;;;11.30;2.83;;;10.20;99.90;;;;;;6186862;23;20042;-81
2022/11/05 09:13:11;;;;;;;6.47;2.72;;;10.20;99.90;;;;;;6188384;23;20020;-81
2022/11/05 09:15:37;;;;;;;6.30;2.63;;;10.40;99.90;;;;;;6185571;23;20017;-83
2022/11/05 09:18:06;;;;;;;4.70;2.30;;;10.40;99.90;;;;;;6210701;23;20009;-83
2022/11/05 09:20:32;;;;;;;7.07;2.58;;;10.40;99.90;;;;;;6184868;23;20017;-81
2022/11/05 09:22:58;;;;;;;7.72;3.15;;;10.40;99.90;;;;;;6186200;23;20035;-82
2022/11/05 09:25:25;;;;;;;5.13;2.70;;;10.50;99.90;;;;;;6184738;23;20518;-82
2022/11/05 09:27:50;;;;;;;6.38;2.78;;;10.60;99.90;;;;;;6185082;23;20088;-82
2022/11/05 09:30:16;;;;;;;6.35;2.40;;;10.60;99.90;;;;;;6184861;23;20048;-82
2022/11/05 09:32:42;;;;;;;9.13;2.95;;;10.70;99.90;;;;;;6186974;23;20005;-84
2022/11/05 09:35:08;;;;;;;5.18;2.35;;;10.80;99.90;;;;;;6185144;23;20013;-84
2022/11/05 09:37:35;;;;;;;7.28;2.47;;;10.80;99.90;;;;;;6185593;23;20086;-83
2022/11/05 09:40:01;;;;;;;8.88;2.72;;;10.90;99.90;;;;;;6187083;23;20013;-83
2022/11/05 09:42:36;;;;;;;7.32;2.50;;;11.00;99.90;;;;;;6184391;23;20108;-83
2022/11/05 09:45:23;;;;;;;8.35;2.67;;;11.10;99.90;;;;;;6184698;23;20021;-83
2022/11/05 09:47:55;;;;;;;6.85;2.70;;;11.20;99.90;;;;;;6184915;23;20021;-81
2022/11/05 09:50:42;;;;;;;7.22;2.20;;;11.20;99.90;;;;;;6184446;23;20052;-82
2022/11/05 09:53:13;;;;;;;5.03;1.92;;;11.20;99.90;;;;;;6210132;23;20020;-81
2022/11/05 09:55:45;;;;;;;5.15;2.40;;;11.20;99.90;;;;;;6185108;23;20045;-83
2022/11/05 09:58:21;;;;;;;5.40;2.20;;;11.30;99.90;;;;;;6184527;23;20009;-83
2022/11/05 10:00:51;;;;;;;4.65;1.92;;;11.40;99.90;;;;;;6161224;23;20096;-88
2022/11/05 10:03:26;;;;;;;7.80;2.40;;;11.50;99.90;;;;;;6211080;23;20017;-78
2022/11/05 10:05:53;;;;;;;;;;;11.60;99.90;;;;;;6186924;23;20013;-81
2022/11/05 10:08:43;;;;;;;4.60;1.75;;;11.70;99.90;;;;;;6184864;23;20491;-78
2022/11/05 10:11:49;;;;;;;8.52;1.90;;;11.80;99.90;;;;;;6174716;23;20017;-79
2022/11/05 10:14:20;;;;;;;5.57;1.67;;;11.90;99.90;;;;;;6185306;23;20397;-76
2022/11/05 10:16:53;;;;;;;5.57;2.10;;;12.00;99.90;;;;;;6184186;23;20017;-77
2022/11/05 10:19:26;;;;;;;7.00;2.05;;;12.20;99.90;;;;;;6184710;23;20063;-80
2022/11/05 10:22:12;;;;;;;6.05;2.00;;;12.10;99.90;;;;;;6187795;23;20017;-79
2022/11/05 10:24:45;;;;;;;6.28;1.90;;;12.00;99.90;;;;;;6185569;23;20525;-79
2022/11/05 10:27:33;;;;;;;4.57;2.10;;;11.80;99.90;;;;;;6187925;23;20073;-75
2022/11/05 10:29:59;;;;;;;5.32;2.03;;;11.90;99.90;;;;;;6185779;23;20084;-79
2022/11/05 10:32:34;;;;;;;10.30;1.98;;;11.90;99.90;;;;;;6185597;23;20044;-79
2022/11/05 10:35:02;;;;;;;5.20;1.90;;;11.80;99.90;;;;;;6185811;23;20019;-79
2022/11/05 10:37:30;;;;;;;5.75;1.95;;;11.80;99.90;;;;;;6161156;23;20050;-80
2022/11/05 10:39:56;;;;;;;4.32;1.70;;;11.80;99.90;;;;;;6185901;23;20319;-79
2022/11/05 10:42:34;;;;;;;7.32;1.90;;;11.80;99.90;;;;;;6184770;23;20020;-80
2022/11/05 10:45:24;;;;;;;5.88;2.25;;;11.90;99.90;;;;;;6185669;23;20025;-77
2022/11/05 10:47:58;;;;;;;6.40;2.10;;;12.00;99.90;;;;;;6185396;23;20032;-76
2022/11/05 10:50:26;;;;;;;10.45;1.67;;;12.20;99.90;;;;;;6187297;23;20013;-78
2022/11/05 10:53:00;;;;;;;5.10;1.42;;;12.30;99.90;;;;;;6185482;23;20060;-79
2022/11/05 10:55:30;;;;;;;5.30;1.48;;;12.30;99.90;;;;;;6185948;23;20009;-78
2022/11/05 10:58:14;;;;;;;7.43;2.33;;;12.40;99.90;;;;;;6185478;23;20028;-80
2022/11/05 11:00:43;;;;;;;4.25;1.52;;;12.50;99.90;;;;;;6187556;23;20017;-77
2022/11/05 11:03:36;;;;;;;4.90;1.67;;;12.40;99.90;;;;;;6185189;23;20044;-81
2022/11/05 11:06:22;;;;;;;8.20;1.60;;;12.30;99.90;;;;;;6185438;23;20025;-76
2022/11/05 11:08:49;;;;;;;4.75;1.58;;;12.30;99.90;;;;;;6185729;23;20017;-76
2022/11/05 11:11:28;;;;;;;4.63;1.85;;;12.20;99.90;;;;;;6186628;23;20021;-77
2022/11/05 11:14:00;;;;;;;5.13;2.10;;;12.10;99.90;;;;;;6185729;23;20459;-80
2022/11/05 11:16:30;;;;;;;5.63;1.80;;;12.00;99.90;;;;;;6185453;23;20435;-77
2022/11/05 11:19:00;;;;;;;6.18;2.17;;;11.90;99.90;;;;;;6185275;23;20016;-78
2022/11/05 11:21:27;;;;;;;5.57;1.80;;;11.90;99.90;;;;;;6185056;23;20092;-80
2022/11/05 11:24:01;;;;;;;6.38;1.85;;;11.80;99.90;;;;;;6185526;23;20144;-80
2022/11/05 11:26:35;;;;;;;4.82;2.03;;;12.00;99.90;;;;;;6210581;23;20013;-81
2022/11/05 11:29:25;;;;;;;4.85;2.22;;;12.10;99.90;;;;;;6185505;23;20465;-80
2022/11/05 11:31:57;;;;;;;8.05;2.08;;;12.00;99.90;;;;;;6159424;23;20028;-77
2022/11/05 11:34:33;;;;;;;5.55;1.90;;;12.00;99.90;;;;;;6185150;23;20017;-80
2022/11/05 11:37:06;;;;;;;5.22;2.10;;;11.90;99.90;;;;;;6187415;23;20009;-78
2022/11/05 11:39:32;;;;;;;4.07;1.70;;;11.80;99.90;;;;;;6185721;23;20505;-78
2022/11/05 11:42:04;;;;;;;4.57;1.70;;;11.70;99.90;;;;;;6185410;23;20017;-76
2022/11/05 11:44:35;;;;;;;7.00;1.80;;;11.70;99.90;;;;;;6185573;23;20017;-79
2022/11/05 11:47:08;;;;;;;4.93;1.60;;;11.60;99.90;;;;;;6187113;23;20072;-77
2022/11/05 11:49:54;;;;;;;4.20;1.65;;;11.60;99.90;;;;;;6185078;23;20439;-78
2022/11/05 11:52:23;;;;;;;5.10;1.92;;;11.60;99.90;;;;;;6185144;23;20013;-79
2022/11/05 11:54:50;;;;;;;4.55;1.92;;;11.50;99.90;;;;;;6185406;23;20099;-79
2022/11/05 11:57:27;;;;;;;7.45;1.90;;;11.50;99.90;;;;;;6186684;23;20017;-79
2022/11/05 11:59:55;;;;;;;4.22;1.67;;;11.50;99.90;;;;;;6210349;23;20013;-79
2022/11/05 12:02:45;;;;;;;4.53;1.40;;;11.40;99.90;;;;;;6184873;23;20019;-78
2022/11/05 12:05:42;;;;;;;5.13;1.48;;;11.40;99.90;;;;;;6184734;23;20017;-77
2022/11/05 12:08:29;;;;;;;7.57;2.08;;;11.40;99.90;;;;;;6186769;23;20020;-81
2022/11/05 12:11:03;;;;;;;6.47;2.22;;;11.40;99.90;;;;;;6185282;23;20021;-78
2022/11/05 12:13:43;;;;;;;8.27;2.50;;;11.40;99.90;;;;;;6184967;23;20316;-78
2022/11/05 12:16:21;;;;;;;6.03;2.20;;;11.40;99.90;;;;;;6185164;23;20012;-81
2022/11/05 12:19:08;;;;;;;6.78;2.22;;;11.40;99.90;;;;;;6185042;23;20435;-80
2022/11/05 12:21:37;;;;;;;12.27;2.55;;;11.40;99.90;;;;;;6184358;23;20059;-80
2022/11/05 12:24:13;;;;;;;9.63;2.20;;;11.40;99.90;;;;;;6159800;23;20009;-80
2022/11/05 12:26:56;;;;;;;8.45;2.45;;;11.40;99.90;;;;;;6159779;23;20013;-80
2022/11/05 12:29:56;;;;;;;6.03;2.70;;;11.40;99.90;;;;;;6159708;23;20055;-80
2022/11/05 12:32:40;;;;;;;11.10;3.92;;;11.40;99.90;;;;;;6184772;23;20008;-82
2022/11/05 12:35:38;;;;;;;9.70;3.60;;;11.40;99.90;;;;;;6184442;23;20012;-80
2022/11/05 12:38:15;;;;;;;8.57;3.30;;;11.40;99.90;;;;;;6184540;23;20009;-81
2022/11/05 12:41:12;;;;;;;7.22;3.47;;;11.50;99.90;;;;;;6184694;23;20013;-79
2022/11/05 12:43:40;;;;;;;12.38;3.90;;;11.50;99.90;;;;;;6184829;23;20021;-81
2022/11/05 12:46:30;;;;;;;10.05;4.15;;;11.60;99.90;;;;;;6184646;23;20386;-79
2022/11/05 12:49:08;;;;;;;7.70;3.80;;;11.60;99.90;;;;;;6185504;23;20331;-78
2022/11/05 12:51:42;;;;;;;13.80;4.20;;;11.60;99.90;;;;;;6184766;23;20023;-78
2022/11/05 12:54:14;;;;;;;9.90;4.00;;;11.70;99.90;;;;;;6184758;23;20017;-79
2022/11/05 12:56:51;;;;;;;10.82;3.95;;;11.70;99.90;;;;;;6183072;23;20062;-80
2022/11/05 12:59:20;;;;;;;14.63;4.35;;;11.70;99.90;;;;;;6183950;23;20419;-79
2022/11/05 13:01:50;;;;;;;10.65;4.55;;;11.70;99.90;;;;;;6183853;23;20016;-79
2022/11/05 13:04:38;;;;;;;12.15;4.95;;;11.70;99.90;;;;;;6184573;23;20013;-79
2022/11/05 13:07:08;;;;;;;11.35;4.45;;;11.70;99.90;;;;;;6184175;23;20009;-81
2022/11/05 13:09:42;;;;;;;9.75;3.40;;;11.70;99.90;;;;;;6184601;23;20017;-79
2022/11/05 13:12:15;;;;;;;10.68;3.72;;;11.70;99.90;;;;;;6184962;23;20093;-78
2022/11/05 13:15:01;;;;;;;13.05;3.90;;;11.80;99.90;;;;;;6187157;23;20095;-82
2022/11/05 13:17:32;;;;;;;11.45;4.05;;;11.90;99.90;;;;;;6184984;23;20088;-80
2022/11/05 13:20:11;;;;;;;8.90;3.42;;;11.90;99.90;;;;;;6184871;23;20331;-80
2022/11/05 13:23:06;;;;;;;9.27;4.13;;;11.90;99.90;;;;;;6186720;23;20084;-82
2022/11/05 13:25:37;;;;;;;7.93;3.95;;;11.90;99.90;;;;;;6159380;23;20431;-84
2022/11/05 13:28:03;;;;;;;13.13;5.85;;;11.80;99.90;;;;;;6184774;23;20043;-81
2022/11/05 13:30:36;;;;;;;12.75;4.30;;;11.90;99.90;;;;;;6184234;23;20052;-80
2022/11/05 13:33:27;;;;;;;19.52;8.63;;;11.80;99.90;;;;;;6211366;23;20323;-79
2022/11/05 13:39:12;;;;;;;19.15;7.63;;;11.80;99.90;;;;;;6186206;23;20024;-78
2022/11/05 13:41:50;;;;;;;18.20;7.40;;;11.70;99.90;;;;;;6186036;23;20067;-77
2022/11/05 13:44:31;;;;;;;12.35;4.15;;;11.70;99.90;;;;;;6163006;23;20075;-79
2022/11/05 13:47:12;;;;;;;11.98;3.97;;;11.70;99.90;;;;;;6186453;23;20013;-79
2022/11/05 13:49:44;;;;;;;9.48;3.65;;;11.60;99.90;;;;;;6186693;23;20017;-80
2022/11/05 13:52:40;;;;;;;9.48;3.53;;;11.60;99.90;;;;;;6186359;23;20013;-76
2022/11/05 13:55:20;;;;;;;;;;;11.60;99.90;;;;;;6188831;23;20005;-77
2022/11/05 13:58:23;;;;;;;11.50;4.10;;;11.50;99.90;;;;;;6185700;23;19912;-80
2022/11/05 14:01:07;;;;;;;9.82;5.07;;;11.50;99.90;;;;;;6188005;23;20017;-79
2022/11/05 14:03:33;;;;;;;10.90;4.00;;;11.40;99.90;;;;;;6186584;23;20530;-77
2022/11/05 14:06:04;;;;;;;9.18;3.88;;;11.40;99.90;;;;;;6184672;23;20045;-77
2022/11/05 14:08:37;;;;;;;7.53;3.95;;;11.40;99.90;;;;;;6185138;23;20048;-79
2022/11/05 14:11:14;;;;;;;8.05;3.90;;;11.40;99.90;;;;;;6185952;23;20014;-79
2022/11/05 14:13:42;;;;;;;8.07;4.50;;;11.30;99.90;;;;;;6186713;23;20502;-81
2022/11/05 14:16:23;;;;;;;13.20;4.68;;;11.30;99.90;;;;;;6191790;23;20013;-75
2022/11/05 14:19:16;;;;;;;13.82;5.05;;;11.20;99.90;;;;;;6190018;23;20066;-76
2022/11/05 14:21:53;;;;;;;9.05;4.50;;;11.20;99.90;;;;;;6188165;23;20009;-78
2022/11/05 14:24:22;;;;;;;12.13;5.35;;;11.20;99.90;;;;;;6188135;23;20013;-77
2022/11/05 14:27:00;;;;;;;11.65;4.85;;;11.20;99.90;;;;;;6185315;23;20013;-77
2022/11/05 14:29:39;;;;;;;7.72;4.30;;;11.10;99.90;;;;;;6186462;23;20028;-79
2022/11/05 14:32:26;;;;;;;8.90;4.20;;;11.10;99.90;;;;;;6185143;23;20045;-79
2022/11/05 14:35:00;;;;;;;9.50;4.00;;;11.10;99.90;;;;;;6187630;23;20013;-79
2022/11/05 14:37:39;;;;;;;11.57;4.53;;;11.10;99.90;;;;;;6186415;23;20084;-79
2022/11/05 14:40:20;;;;;;;9.07;3.97;;;11.10;99.90;;;;;;6211634;23;20023;-77
2022/11/05 14:42:55;;;;;;;8.23;4.00;;;11.10;99.90;;;;;;6186706;23;20013;-79
2022/11/05 14:45:34;;;;;;;10.05;4.07;;;11.10;99.90;;;;;;6188165;23;20017;-80
2022/11/05 14:48:07;;;;;;;8.20;4.15;;;11.10;99.90;;;;;;6212245;23;20335;-77
2022/11/05 14:50:39;;;;;;;8.57;3.63;;;11.00;99.90;;;;;;6188174;23;20013;-77
2022/11/05 14:53:35;;;;;;;11.77;3.83;;;11.00;99.90;;;;;;6188011;23;20017;-80
2022/11/05 14:56:07;;;;;;;12.02;3.83;;;11.00;99.90;;;;;;6175135;23;20044;-80
2022/11/05 14:58:41;;;;;;;8.23;3.85;;;11.00;99.90;;;;;;6161684;23;20013;-76
2022/11/05 15:01:08;;;;;;;8.38;3.47;;;11.00;99.90;;;;;;6186109;23;20028;-81
2022/11/05 15:03:58;;;;;;;6.90;3.63;;;11.00;99.90;;;;;;6185419;23;20044;-79
2022/11/05 15:06:26;;;;;;;10.43;4.68;;;10.90;99.90;;;;;;6187658;23;20012;-81
2022/11/05 15:08:58;;;;;;;11.82;4.15;;;10.90;99.90;;;;;;6160583;23;20027;-81
2022/11/05 15:11:39;;;;;;;10.95;4.25;;;11.00;99.90;;;;;;6185679;23;20309;-81
2022/11/05 15:14:27;;;;;;;13.25;4.50;;;10.90;99.90;;;;;;6185858;23;20075;-76
2022/11/05 15:16:57;;;;;;;13.27;4.93;;;10.90;99.90;;;;;;6185770;23;20020;-77
2022/11/05 15:19:31;;;;;;;12.65;5.15;;;10.80;99.90;;;;;;6185410;23;20047;-82
2022/11/05 15:22:01;;;;;;;10.93;5.07;;;10.80;99.90;;;;;;6185114;23;20013;-81
2022/11/05 15:24:27;;;;;;;12.82;5.65;;;10.80;99.90;;;;;;6184711;23;20009;-81
2022/11/05 15:26:53;;;;;;;12.30;5.53;;;10.80;99.90;;;;;;6187695;23;20009;-78
2022/11/05 15:29:23;;;;;;;8.70;5.35;;;10.70;99.90;;;;;;6185453;23;20443;-80
2022/11/05 15:31:49;;;;;;;13.85;5.97;;;10.70;99.90;;;;;;6210549;23;20033;-82
2022/11/05 15:34:18;;;;;;;12.65;6.07;;;10.60;99.90;;;;;;6185853;23;20013;-81
2022/11/05 15:37:00;;;;;;;14.13;6.30;;;10.60;99.90;;;;;;6160602;23;20075;-81
2022/11/05 15:39:39;;;;;;;11.32;6.10;;;10.60;99.90;;;;;;6210668;23;20104;-78
2022/11/05 15:42:11;;;;;;;17.15;6.70;;;10.60;99.90;;;;;;6185513;23;20012;-80
2022/11/05 15:44:43;;;;;;;13.30;6.05;;;10.60;99.90;;;;;;6185521;23;20017;-81
2022/11/05 15:47:16;;;;;;;13.43;5.93;;;10.50;99.90;;;;;;6187159;23;20439;-77
2022/11/05 15:49:45;;;;;;;15.77;6.57;;;10.50;99.90;;;;;;6185350;23;20020;-77
2022/11/05 15:52:13;;;;;;;12.13;6.63;;;10.50;99.90;;;;;;6185320;23;20044;-77
2022/11/05 15:54:39;;;;;;;12.07;6.18;;;10.50;99.90;;;;;;6185399;23;20013;-81
2022/11/05 15:57:25;;;;;;;15.30;6.85;;;10.50;99.90;;;;;;6185707;23;20032;-80
2022/11/05 15:59:50;;;;;;;13.20;6.57;;;10.40;99.90;;;;;;6186438;23;20012;-79
2022/11/05 16:02:25;;;;;;;14.88;6.57;;;10.40;99.90;;;;;;6186083;23;20016;-77
2022/11/05 16:04:51;;;;;;;12.02;6.53;;;10.40;99.90;;;;;;6185437;23;20037;-77
2022/11/05 16:07:17;;;;;;;16.25;6.53;;;10.40;99.90;;;;;;6185202;23;20013;-82
2022/11/05 16:09:51;;;;;;;11.57;6.68;;;10.40;99.90;;;;;;6184994;23;20451;-77
2022/11/05 16:12:17;;;;;;;16.03;7.33;;;10.40;99.90;;;;;;6185095;23;20379;-83
2022/11/05 16:14:54;;;;;;;14.50;7.20;;;10.40;99.90;;;;;;6184715;23;20020;-82
2022/11/05 16:17:22;;;;;;;12.75;7.13;;;10.40;99.90;;;;;;6186529;23;20040;-77
2022/11/05 16:19:48;;;;;;;15.40;7.45;;;10.30;99.90;;;;;;6186597;23;20013;-80
2022/11/05 16:22:14;;;;;;;19.60;7.65;;;10.30;99.90;;;;;;6184722;23;20017;-80
2022/11/05 16:24:41;;;;;;;13.00;6.93;;;10.30;99.90;;;;;;6185116;23;20016;-82
2022/11/05 16:27:17;;;;;;;13.05;7.05;;;10.30;99.90;;;;;;6186076;23;20013;-77
2022/11/05 16:30:01;;;;;;;13.82;7.15;;;10.30;99.90;;;;;;6184049;23;20020;-83
2022/11/05 16:32:30;;;;;;;18.05;7.47;;;10.30;99.90;;;;;;6183928;23;20339;-81
2022/11/05 16:35:02;;;;;;;13.27;7.05;;;10.30;99.90;;;;;;6183693;23;20013;-82
2022/11/05 16:37:36;;;;;;;15.82;6.82;;;10.20;99.90;;;;;;6183580;23;20040;-79
2022/11/05 16:40:02;;;;;;;13.70;7.40;;;10.20;99.90;;;;;;6183824;23;20325;-79
2022/11/05 16:42:39;;;;;;;14.32;7.00;;;10.20;99.90;;;;;;6183495;23;20339;-81
2022/11/05 16:45:05;;;;;;;15.32;7.53;;;10.20;99.90;;;;;;6208525;23;20024;-81
2022/11/05 16:47:30;;;;;;;15.13;6.78;;;10.20;99.90;;;;;;6185459;23;20013;-78
2022/11/05 16:49:57;;;;;;;13.63;6.80;;;10.20;99.90;;;;;;6185329;23;20303;-80
2022/11/05 16:52:22;;;;;;;14.85;7.03;;;10.20;99.90;;;;;;6183119;23;20335;-80
2022/11/05 16:54:48;;;;;;;15.30;6.95;;;10.20;99.90;;;;;;6185597;23;20020;-78
2022/11/05 16:57:18;;;;;;;11.95;6.80;;;10.20;99.90;;;;;;6183462;23;20040;-78
2022/11/05 16:59:44;;;;;;;15.93;6.47;;;10.20;99.90;;;;;;6185114;23;20013;-80
2022/11/05 17:02:10;;;;;;;10.95;6.15;;;10.20;99.90;;;;;;6183276;23;20051;-78
2022/11/05 17:04:35;;;;;;;13.98;6.57;;;10.10;99.90;;;;;;6182669;23;20447;-79
2022/11/05 17:07:01;;;;;;;12.27;5.97;;;10.20;99.90;;;;;;6183510;23;20013;-80
2022/11/05 17:09:27;;;;;;;16.42;6.57;;;10.20;99.90;;;;;;6183528;23;20387;-81
2022/11/05 17:11:52;;;;;;;11.82;6.47;;;10.20;99.90;;;;;;6183227;23;20017;-82
2022/11/05 17:14:18;;;;;;;13.32;6.25;;;10.20;99.90;;;;;;6183649;23;20009;-79
2022/11/05 17:16:43;;;;;;;14.25;6.22;;;10.20;99.90;;;;;;6183274;23;20339;-81
2022/11/05 17:19:14;;;;;;;13.88;6.50;;;10.20;99.90;;;;;;6183238;23;20013;-77
2022/11/05 17:21:40;;;;;;;14.25;6.60;;;10.20;99.90;;;;;;6208263;23;20505;-76
2022/11/05 17:24:06;;;;;;;15.75;6.80;;;10.20;99.90;;;;;;6183458;23;20092;-77
2022/11/05 17:26:32;;;;;;;11.00;6.10;;;10.10;99.90;;;;;;6208432;23;20657;-80
2022/11/05 17:28:58;;;;;;;11.35;6.28;;;10.20;99.90;;;;;;6183156;23;20068;-79
2022/11/05 17:31:24;;;;;;;12.85;5.88;;;10.20;99.90;;;;;;6182906;23;20013;-79
2022/11/05 17:33:54;;;;;;;12.70;6.05;;;10.10;99.90;;;;;;6184808;23;20009;-78
2022/11/05 17:36:19;;;;;;;13.40;6.15;;;10.20;99.90;;;;;;6184933;23;20092;-83
2022/11/05 17:38:45;;;;;;;13.02;6.65;;;10.20;99.90;;;;;;6158216;23;20052;-78
2022/11/05 17:41:16;;;;;;;18.60;8.07;;;10.20;99.90;;;;;;6182988;23;20016;-81
2022/11/05 17:43:43;;;;;;;13.32;5.90;;;10.20;99.90;;;;;;6183995;23;20020;-80
2022/11/05 17:46:12;;;;;;;14.13;5.97;;;10.20;99.90;;;;;;6185347;23;20443;-81
2022/11/05 17:48:38;;;;;;;12.88;5.82;;;10.20;99.90;;;;;;6185265;23;20063;-77
2022/11/05 17:51:06;;;;;;;14.88;6.38;;;10.20;99.90;;;;;;6184516;23;20017;-79
2022/11/05 17:53:32;;;;;;;12.35;5.90;;;10.20;99.90;;;;;;6184870;23;20009;-77
2022/11/05 17:55:58;;;;;;;14.00;6.00;;;10.20;99.90;;;;;;6185098;23;20166;-77
2022/11/05 17:58:23;;;;;;;13.13;6.05;;;10.20;99.90;;;;;;6183301;23;20009;-79
2022/11/05 18:00:49;;;;;;;14.30;6.00;;;10.10;99.90;;;;;;6158530;23;20021;-81
2022/11/05 18:03:15;;;;;;;10.57;5.30;;;10.10;99.90;;;;;;6183785;23;20103;-82
2022/11/05 18:05:41;;;;;;;16.05;6.43;;;10.20;99.90;;;;;;6183319;23;20068;-82
2022/11/05 18:08:07;;;;;;;12.52;6.13;;;10.20;99.90;;;;;;6183292;23;20017;-79